createdAt,value
2023-02-16T00:00:45.092Z,43.84
2023-02-16T00:03:21.540Z,43.91
2023-02-16T00:05:49.785Z,43.54
2023-02-16T00:08:16.597Z,43.61
2023-02-16T00:11:05.331Z,44.05
2023-02-16T00:13:44.476Z,44.30
2023-02-16T00:16:15.798Z,44.64
2023-02-16T00:18:42.994Z,44.12
2023-02-16T00:21:10.440Z,44.21
2023-02-16T00:23:37.976Z,44.56
2023-02-16T00:26:06.066Z,44.12
2023-02-16T00:28:33.076Z,44.59
2023-02-16T00:31:00.019Z,44.54
2023-02-16T00:33:26.829Z,44.10
2023-02-16T00:35:53.593Z,45.17
2023-02-16T00:38:20.488Z,44.59
2023-02-16T00:40:47.342Z,45.29
2023-02-16T00:43:25.504Z,45.01
2023-02-16T00:45:53.026Z,44.60
2023-02-16T00:48:19.974Z,44.86
2023-02-16T00:50:46.757Z,45.17
2023-02-16T00:53:14.424Z,45.38
2023-02-16T00:55:42.977Z,45.29
2023-02-16T00:58:25.575Z,44.94
2023-02-16T01:00:55.291Z,45.05
2023-02-16T01:03:28.571Z,45.46
2023-02-16T01:06:16.046Z,44.77
2023-02-16T01:09:02.566Z,45.37
2023-02-16T01:11:31.894Z,45.02
2023-02-16T01:13:58.798Z,45.16
2023-02-16T01:16:33.700Z,45.20
2023-02-16T01:19:03.498Z,44.84
2023-02-16T01:21:30.261Z,44.21
2023-02-16T01:23:57.175Z,45.26
2023-02-16T01:26:24.151Z,44.79
2023-02-16T01:28:51.219Z,45.03
2023-02-16T01:31:18.362Z,45.24
2023-02-16T01:33:45.270Z,45.22
2023-02-16T01:36:36.528Z,45.25
2023-02-16T01:39:07.272Z,45.07
2023-02-16T01:42:11.014Z,44.95
2023-02-16T01:44:40.400Z,44.79
2023-02-16T01:47:24.853Z,44.86
2023-02-16T01:49:52.271Z,44.96
2023-02-16T01:52:44.036Z,46.03
2023-02-16T01:55:28.572Z,45.04
2023-02-16T01:58:00.071Z,45.41
2023-02-16T02:00:52.440Z,45.57
2023-02-16T02:03:50.014Z,45.36
2023-02-16T02:06:21.485Z,45.41
2023-02-16T02:08:54.617Z,45.40
2023-02-16T02:11:30.205Z,44.98
2023-02-16T02:14:04.985Z,45.33
2023-02-16T02:16:31.931Z,45.37
2023-02-16T02:18:59.300Z,45.17
2023-02-16T02:22:07.138Z,45.36
2023-02-16T02:24:53.173Z,45.20
2023-02-16T02:27:26.841Z,45.77
2023-02-16T02:30:15.476Z,46.21
2023-02-16T02:33:06.904Z,45.78
2023-02-16T02:35:58.167Z,45.78
2023-02-16T02:38:24.946Z,46.06
2023-02-16T02:40:56.540Z,46.04
2023-02-16T02:43:45.247Z,45.44
2023-02-16T02:46:19.141Z,44.92
2023-02-16T02:48:46.940Z,44.99
2023-02-16T02:51:30.566Z,45.19
2023-02-16T02:54:42.599Z,45.36
2023-02-16T02:57:53.359Z,45.31
2023-02-16T03:00:42.064Z,45.55
2023-02-16T03:03:27.762Z,45.71
2023-02-16T03:05:59.467Z,45.68
2023-02-16T03:08:29.413Z,45.47
2023-02-16T03:11:21.243Z,45.21
2023-02-16T03:14:03.068Z,45.41
2023-02-16T03:16:39.412Z,45.57
2023-02-16T03:19:29.239Z,45.71
2023-02-16T03:22:16.402Z,45.61
2023-02-16T03:25:02.726Z,45.54
2023-02-16T03:27:53.807Z,46.27
2023-02-16T03:30:24.312Z,45.42
2023-02-16T03:32:52.307Z,45.82
2023-02-16T03:35:19.654Z,45.91
2023-02-16T03:37:47.180Z,45.80
2023-02-16T03:40:28.631Z,45.84
2023-02-16T03:43:13.503Z,45.81
2023-02-16T03:45:43.302Z,45.93
2023-02-16T03:48:11.230Z,45.66
2023-02-16T03:50:38.341Z,45.24
2023-02-16T03:53:08.019Z,45.47
2023-02-16T03:55:40.680Z,45.30
2023-02-16T03:58:10.746Z,45.33
2023-02-16T04:00:37.843Z,44.94
2023-02-16T04:03:05.882Z,45.18
2023-02-16T04:05:33.369Z,45.35
2023-02-16T04:08:00.879Z,45.50
2023-02-16T04:10:28.285Z,45.05
2023-02-16T04:12:55.207Z,45.42
2023-02-16T04:15:24.439Z,45.36
2023-02-16T04:17:51.397Z,45.50
2023-02-16T04:20:20.335Z,45.95
2023-02-16T04:22:47.947Z,45.99
2023-02-16T04:25:15.431Z,45.89
2023-02-16T04:27:43.287Z,45.33
2023-02-16T04:30:13.965Z,45.55
2023-02-16T04:32:41.066Z,45.80
2023-02-16T04:35:08.948Z,45.89
2023-02-16T04:37:36.622Z,46.34
2023-02-16T04:40:04.510Z,46.13
2023-02-16T04:42:31.617Z,46.09
2023-02-16T04:44:58.625Z,45.83
2023-02-16T04:47:28.746Z,45.64
2023-02-16T04:49:55.850Z,45.60
2023-02-16T04:52:22.602Z,45.93
2023-02-16T04:54:49.458Z,45.88
2023-02-16T04:57:17.225Z,45.78
2023-02-16T04:59:44.131Z,46.13
2023-02-16T05:02:10.913Z,46.00
2023-02-16T05:04:37.841Z,45.82
2023-02-16T05:07:04.720Z,45.61
2023-02-16T05:09:31.622Z,45.93
2023-02-16T05:12:16.666Z,45.68
2023-02-16T05:14:45.602Z,45.50
2023-02-16T05:17:24.667Z,45.45
2023-02-16T05:19:54.993Z,46.54
2023-02-16T05:22:23.804Z,46.34
2023-02-16T05:24:50.880Z,45.92
2023-02-16T05:27:23.909Z,46.04
2023-02-16T05:29:51.794Z,46.53
2023-02-16T05:32:19.292Z,46.37
2023-02-16T05:34:46.262Z,46.57
2023-02-16T05:37:14.427Z,46.59
2023-02-16T05:39:41.381Z,46.57
2023-02-16T05:42:08.557Z,46.12
2023-02-16T05:44:36.384Z,46.05
2023-02-16T05:47:03.645Z,46.29
2023-02-16T05:49:30.613Z,46.03
2023-02-16T05:51:57.517Z,46.38
2023-02-16T05:54:24.543Z,46.19
2023-02-16T05:56:53.068Z,45.93
2023-02-16T05:59:20.491Z,46.43
2023-02-16T06:01:51.033Z,46.13
2023-02-16T06:04:19.762Z,46.08
2023-02-16T06:06:46.884Z,46.14
2023-02-16T06:09:13.810Z,46.45
2023-02-16T06:11:44.737Z,46.40
2023-02-16T06:14:19.199Z,45.89
2023-02-16T06:16:48.784Z,46.19
2023-02-16T06:19:16.959Z,46.22
2023-02-16T06:21:44.325Z,45.81
2023-02-16T06:24:13.074Z,46.37
2023-02-16T06:26:40.741Z,45.90
2023-02-16T06:29:08.038Z,46.08
2023-02-16T06:31:36.653Z,46.74
2023-02-16T06:34:04.713Z,46.25
2023-02-16T06:36:32.879Z,46.86
2023-02-16T06:38:59.919Z,46.39
2023-02-16T06:41:34.292Z,45.60
2023-02-16T06:44:03.433Z,45.83
2023-02-16T06:46:30.722Z,46.33
2023-02-16T06:48:57.726Z,46.35
2023-02-16T06:51:24.557Z,45.63
2023-02-16T06:53:51.567Z,45.37
2023-02-16T06:56:18.369Z,45.54
2023-02-16T06:58:45.138Z,45.26
2023-02-16T07:01:12.196Z,46.05
2023-02-16T07:03:39.954Z,45.90
2023-02-16T07:06:06.902Z,45.13
2023-02-16T07:08:35.597Z,45.17
2023-02-16T07:11:02.661Z,45.39
2023-02-16T07:13:29.464Z,45.27
2023-02-16T07:15:56.436Z,44.90
2023-02-16T07:18:23.271Z,44.85
2023-02-16T07:20:50.019Z,45.01
2023-02-16T07:23:17.801Z,45.35
2023-02-16T07:25:44.605Z,45.40
2023-02-16T07:28:11.315Z,45.83
2023-02-16T07:30:38.205Z,45.43
2023-02-16T07:33:06.705Z,100.00
2023-02-16T07:35:34.564Z,45.68
2023-02-16T07:38:01.645Z,45.42
2023-02-16T07:40:28.603Z,45.30
2023-02-16T07:42:55.416Z,45.42
2023-02-16T07:45:22.628Z,45.06
2023-02-16T07:47:49.427Z,44.80
2023-02-16T07:50:16.577Z,44.79
2023-02-16T07:52:43.288Z,45.28
2023-02-16T07:55:12.369Z,45.28
2023-02-16T07:57:39.838Z,44.64
2023-02-16T08:00:07.832Z,45.10
2023-02-16T08:02:44.738Z,44.77
2023-02-16T08:05:11.673Z,45.02
2023-02-16T08:07:39.742Z,44.28
2023-02-16T08:10:07.999Z,44.53
2023-02-16T08:12:34.728Z,44.67
2023-02-16T08:15:01.653Z,44.38
2023-02-16T08:17:28.314Z,43.54
2023-02-16T08:19:55.248Z,43.24
2023-02-16T08:22:22.058Z,43.11
2023-02-16T08:24:48.793Z,43.07
2023-02-16T08:27:16.833Z,42.52
2023-02-16T08:29:44.518Z,43.07
2023-02-16T08:32:14.608Z,43.10
2023-02-16T08:34:43.298Z,42.97
2023-02-16T08:37:13.381Z,42.58
2023-02-16T08:39:40.715Z,41.96
2023-02-16T08:42:08.453Z,42.30
2023-02-16T08:44:35.535Z,41.74
2023-02-16T08:47:02.765Z,41.67
2023-02-16T08:49:29.703Z,42.14
2023-02-16T08:51:58.680Z,41.32
2023-02-16T08:54:28.195Z,42.03
2023-02-16T08:56:55.793Z,41.97
2023-02-16T08:59:25.994Z,41.36
2023-02-16T09:01:54.165Z,41.31
2023-02-16T09:04:21.221Z,39.92
2023-02-16T09:06:51.329Z,41.36
2023-02-16T09:09:18.767Z,40.51
2023-02-16T09:11:46.343Z,40.16
2023-02-16T09:14:13.688Z,39.74
2023-02-16T09:16:45.569Z,39.72
2023-02-16T09:19:20.745Z,39.81
2023-02-16T09:21:50.663Z,39.19
2023-02-16T09:24:17.710Z,38.92
2023-02-16T09:26:45.527Z,39.10
2023-02-16T09:29:14.108Z,39.04
2023-02-16T09:31:42.519Z,38.42
2023-02-16T09:34:21.771Z,37.54
2023-02-16T09:36:49.720Z,37.53
2023-02-16T09:39:17.542Z,37.05
2023-02-16T09:42:19.322Z,36.80
2023-02-16T09:44:53.098Z,36.79
2023-02-16T09:47:22.562Z,37.01
2023-02-16T09:49:51.514Z,35.87
2023-02-16T09:52:40.340Z,34.95
2023-02-16T09:55:17.061Z,34.53
2023-02-16T09:58:28.139Z,33.70
2023-02-16T10:01:02.370Z,33.55
2023-02-16T10:03:41.422Z,33.62
2023-02-16T10:06:14.285Z,35.06
2023-02-16T10:08:45.809Z,34.60
2023-02-16T10:11:46.682Z,33.93
2023-02-16T10:14:37.044Z,33.32
2023-02-16T10:17:31.539Z,33.79
2023-02-16T10:20:16.247Z,33.78
2023-02-16T10:22:55.115Z,33.77
2023-02-16T10:25:29.425Z,33.55
2023-02-16T10:28:16.398Z,33.47
2023-02-16T10:30:49.381Z,32.29
2023-02-16T10:33:26.986Z,33.07
2023-02-16T10:36:09.925Z,33.06
2023-02-16T10:38:41.616Z,32.87
2023-02-16T10:41:22.189Z,32.82
2023-02-16T10:44:17.656Z,32.89
2023-02-16T10:46:47.960Z,32.54
2023-02-16T10:49:17.562Z,32.40
2023-02-16T10:51:49.766Z,32.51
2023-02-16T10:54:26.163Z,31.87
2023-02-16T10:57:04.202Z,32.14
2023-02-16T10:59:45.970Z,32.38
2023-02-16T11:02:35.076Z,31.97
2023-02-16T11:05:01.983Z,32.72
2023-02-16T11:07:31.365Z,31.75
2023-02-16T11:10:02.976Z,31.61
2023-02-16T11:12:39.522Z,32.36
2023-02-16T11:15:19.839Z,32.81
2023-02-16T11:17:53.247Z,32.28
2023-02-16T11:20:35.741Z,31.70
2023-02-16T11:23:17.783Z,31.73
2023-02-16T11:25:57.421Z,32.46
2023-02-16T11:28:32.656Z,31.87
2023-02-16T11:31:27.282Z,32.20
2023-02-16T11:34:06.795Z,31.79
2023-02-16T11:36:42.887Z,31.61
2023-02-16T11:39:25.460Z,31.36
2023-02-16T11:41:56.700Z,31.10
2023-02-16T11:44:33.580Z,31.81
2023-02-16T11:47:21.851Z,30.64
2023-02-16T11:49:51.926Z,30.94
2023-02-16T11:52:24.580Z,29.22
2023-02-16T11:54:57.549Z,30.16
2023-02-16T11:57:28.690Z,29.28
2023-02-16T11:59:56.983Z,30.13
2023-02-16T12:02:31.136Z,29.56
2023-02-16T12:05:05.189Z,28.72
2023-02-16T12:08:02.242Z,28.35
2023-02-16T12:10:57.496Z,29.15
2023-02-16T12:13:46.043Z,28.35
2023-02-16T12:16:30.884Z,28.47
2023-02-16T12:19:24.274Z,27.90
2023-02-16T12:21:56.909Z,27.44
2023-02-16T12:25:07.902Z,27.19
2023-02-16T12:27:49.063Z,26.52
2023-02-16T12:30:40.650Z,26.63
2023-02-16T12:33:26.814Z,26.14
2023-02-16T12:36:28.891Z,25.20
2023-02-16T12:39:18.177Z,24.51
2023-02-16T12:42:15.577Z,23.84
2023-02-16T12:44:57.233Z,23.82
2023-02-16T12:47:32.442Z,24.60
2023-02-16T12:50:26.997Z,23.38
2023-02-16T12:53:06.249Z,21.84
2023-02-16T12:55:39.757Z,22.04
2023-02-16T12:58:19.773Z,20.95
2023-02-16T13:00:50.993Z,19.87
2023-02-16T13:03:29.077Z,20.49
2023-02-16T13:06:19.383Z,19.86
2023-02-16T13:09:08.581Z,19.74
2023-02-16T13:11:43.605Z,19.70
2023-02-16T13:14:23.618Z,19.72
2023-02-16T13:16:54.710Z,19.05
2023-02-16T13:19:21.649Z,18.61
2023-02-16T13:21:54.381Z,18.46
2023-02-16T13:24:27.148Z,18.01
2023-02-16T13:26:59.856Z,17.99
2023-02-16T13:29:52.863Z,18.19
2023-02-16T13:32:31.261Z,17.89
2023-02-16T13:35:37.145Z,18.17
2023-02-16T13:38:19.195Z,18.17
2023-02-16T13:40:48.542Z,18.12
2023-02-16T13:43:31.414Z,17.86
2023-02-16T13:46:02.999Z,19.02
2023-02-16T13:48:40.185Z,18.36
2023-02-16T13:51:18.274Z,17.72
2023-02-16T13:54:11.173Z,17.87
2023-02-16T13:56:38.330Z,18.21
2023-02-16T13:59:17.440Z,18.13
2023-02-16T14:01:46.293Z,18.57
2023-02-16T14:04:22.288Z,18.79
2023-02-16T14:06:52.012Z,18.31
2023-02-16T14:09:19.383Z,18.32
2023-02-16T14:11:55.163Z,18.71
2023-02-16T14:14:40.533Z,18.50
2023-02-16T14:17:19.685Z,19.13
2023-02-16T14:19:54.215Z,19.55
2023-02-16T14:22:43.033Z,19.55
2023-02-16T14:25:27.235Z,20.73
2023-02-16T14:27:56.446Z,21.45
2023-02-16T14:30:41.982Z,21.29
2023-02-16T14:33:17.571Z,21.66
2023-02-16T14:36:03.592Z,21.46
2023-02-16T14:38:34.909Z,21.78
2023-02-16T14:41:06.197Z,22.41
2023-02-16T14:43:42.106Z,22.69
2023-02-16T14:46:11.959Z,22.41
2023-02-16T14:49:00.470Z,22.92
2023-02-16T14:51:52.106Z,22.87
2023-02-16T14:54:37.957Z,22.97
2023-02-16T14:57:14.821Z,23.59
2023-02-16T14:59:57.868Z,23.50
2023-02-16T15:02:33.868Z,23.71
2023-02-16T15:05:23.952Z,24.16
2023-02-16T15:08:02.381Z,24.53
2023-02-16T15:10:30.057Z,24.59
2023-02-16T15:12:56.807Z,24.55
2023-02-16T15:15:44.873Z,24.29
2023-02-16T15:18:19.938Z,24.50
2023-02-16T15:20:51.281Z,24.76
2023-02-16T15:23:24.345Z,24.80
2023-02-16T15:25:56.981Z,24.85
2023-02-16T15:28:27.153Z,25.01
2023-02-16T15:30:58.318Z,25.73
2023-02-16T15:33:25.154Z,26.05
2023-02-16T15:35:54.727Z,25.68
2023-02-16T15:38:25.602Z,26.50
2023-02-16T15:40:55.531Z,26.98
2023-02-16T15:43:25.142Z,27.22
2023-02-16T15:45:54.109Z,28.21
2023-02-16T15:48:22.978Z,28.78
2023-02-16T15:50:52.163Z,29.25
2023-02-16T15:53:43.696Z,29.05
2023-02-16T15:56:20.176Z,29.92
2023-02-16T15:58:47.727Z,30.05
2023-02-16T16:01:31.602Z,30.35
2023-02-16T16:04:08.495Z,30.86
2023-02-16T16:06:38.460Z,30.90
2023-02-16T16:09:08.775Z,31.63
2023-02-16T16:11:36.834Z,30.66
2023-02-16T16:14:06.174Z,30.91
2023-02-16T16:16:33.873Z,31.32
2023-02-16T16:19:08.443Z,31.60
2023-02-16T16:21:40.025Z,31.71
2023-02-16T16:24:10.806Z,32.30
2023-02-16T16:26:58.544Z,32.01
2023-02-16T16:29:33.129Z,31.56
2023-02-16T16:32:01.735Z,31.83
2023-02-16T16:34:40.686Z,31.78
2023-02-16T16:37:33.697Z,32.56
2023-02-16T16:40:06.646Z,32.74
2023-02-16T16:42:41.406Z,33.29
2023-02-16T16:45:44.131Z,33.55
2023-02-16T16:48:19.602Z,34.68
2023-02-16T16:50:50.280Z,33.77
2023-02-16T16:53:38.640Z,33.94
2023-02-16T16:56:14.126Z,34.08
2023-02-16T16:58:41.409Z,34.18
2023-02-16T17:01:12.383Z,33.54
2023-02-16T17:03:39.092Z,33.64
2023-02-16T17:06:06.892Z,33.75
2023-02-16T17:08:37.418Z,33.88
2023-02-16T17:11:04.433Z,34.05
2023-02-16T17:13:32.330Z,33.93
2023-02-16T17:16:04.315Z,34.00
2023-02-16T17:18:33.595Z,33.74
2023-02-16T17:21:00.334Z,33.52
2023-02-16T17:23:29.445Z,33.11
2023-02-16T17:25:56.197Z,33.55
2023-02-16T17:28:23.285Z,34.47
2023-02-16T17:30:50.258Z,33.67
2023-02-16T17:33:18.456Z,33.49
2023-02-16T17:35:45.326Z,33.11
2023-02-16T17:38:20.801Z,33.52
2023-02-16T17:40:52.462Z,33.50
2023-02-16T17:43:20.884Z,33.96
2023-02-16T17:45:49.435Z,34.16
2023-02-16T17:48:20.716Z,33.85
2023-02-16T17:50:49.408Z,34.85
2023-02-16T17:53:18.071Z,34.71
2023-02-16T17:55:47.133Z,34.89
2023-02-16T17:58:16.123Z,34.88
2023-02-16T18:00:45.698Z,34.70
2023-02-16T18:03:12.762Z,35.41
2023-02-16T18:05:39.789Z,35.42
2023-02-16T18:08:07.209Z,35.43
2023-02-16T18:10:38.221Z,35.27
2023-02-16T18:13:06.588Z,35.95
2023-02-16T18:15:34.638Z,35.93
2023-02-16T18:18:01.521Z,36.08
2023-02-16T18:20:29.296Z,36.52
2023-02-16T18:22:56.223Z,36.70
2023-02-16T18:25:23.708Z,36.37
2023-02-16T18:27:50.923Z,35.75
2023-02-16T18:30:18.266Z,36.14
2023-02-16T18:32:45.692Z,35.97
2023-02-16T18:35:14.189Z,35.63
2023-02-16T18:37:42.106Z,36.70
2023-02-16T18:40:15.375Z,36.42
2023-02-16T18:42:42.487Z,36.71
2023-02-16T18:45:10.299Z,36.67
2023-02-16T18:47:37.805Z,36.26
2023-02-16T18:50:06.397Z,36.86
2023-02-16T18:52:33.304Z,36.44
2023-02-16T18:55:07.515Z,36.59
2023-02-16T18:57:34.553Z,37.07
2023-02-16T19:00:01.310Z,36.82
2023-02-16T19:02:28.199Z,36.27
2023-02-16T19:04:55.049Z,36.50
2023-02-16T19:07:21.968Z,36.39
2023-02-16T19:09:48.949Z,36.59
2023-02-16T19:12:15.881Z,37.20
2023-02-16T19:14:42.667Z,36.70
2023-02-16T19:17:09.549Z,36.73
2023-02-16T19:19:36.947Z,37.29
2023-02-16T19:22:03.905Z,37.45
2023-02-16T19:24:31.748Z,37.59
2023-02-16T19:26:58.604Z,37.54
2023-02-16T19:29:25.308Z,37.87
2023-02-16T19:31:52.493Z,38.57
2023-02-16T19:34:19.360Z,38.15
2023-02-16T19:36:46.238Z,38.13
2023-02-16T19:39:13.177Z,38.48
2023-02-16T19:41:42.929Z,38.21
2023-02-16T19:44:13.915Z,37.93
2023-02-16T19:46:41.861Z,38.00
2023-02-16T19:49:09.060Z,37.17
2023-02-16T19:51:35.906Z,38.09
2023-02-16T19:54:02.628Z,37.76
2023-02-16T19:56:29.826Z,37.89
2023-02-16T19:58:58.664Z,38.63
2023-02-16T20:01:27.121Z,38.77
2023-02-16T20:03:56.035Z,40.09
2023-02-16T20:06:41.105Z,39.66
2023-02-16T20:09:09.230Z,40.46
2023-02-16T20:11:38.686Z,39.58
2023-02-16T20:14:05.877Z,39.99
2023-02-16T20:16:32.935Z,40.15
2023-02-16T20:19:00.498Z,39.80
2023-02-16T20:21:29.185Z,40.03
2023-02-16T20:23:59.623Z,39.47
2023-02-16T20:26:35.559Z,39.49
2023-02-16T20:29:05.084Z,40.30
2023-02-16T20:31:41.200Z,39.99
2023-02-16T20:34:09.678Z,40.95
2023-02-16T20:36:37.277Z,40.75
2023-02-16T20:39:07.138Z,40.30
2023-02-16T20:41:33.946Z,40.73
2023-02-16T20:44:00.820Z,39.69
2023-02-16T20:46:27.678Z,40.64
2023-02-16T20:48:54.650Z,39.93
2023-02-16T20:51:22.867Z,39.99
2023-02-16T20:53:49.666Z,40.73
2023-02-16T20:56:25.476Z,40.15
2023-02-16T20:58:54.619Z,39.60
2023-02-16T21:01:25.066Z,39.46
2023-02-16T21:03:53.947Z,39.77
2023-02-16T21:06:21.111Z,39.36
2023-02-16T21:08:48.683Z,40.35
2023-02-16T21:11:16.115Z,39.58
2023-02-16T21:13:43.666Z,39.62
2023-02-16T21:16:11.450Z,40.44
2023-02-16T21:18:40.501Z,40.91
2023-02-16T21:21:08.646Z,40.75
2023-02-16T21:23:36.136Z,41.22
2023-02-16T21:26:05.778Z,42.02
2023-02-16T21:28:33.169Z,42.37
2023-02-16T21:31:05.954Z,41.86
2023-02-16T21:33:33.477Z,42.23
2023-02-16T21:36:11.197Z,40.98
2023-02-16T21:38:39.239Z,41.75
2023-02-16T21:41:28.763Z,41.65
2023-02-16T21:44:09.855Z,40.72
2023-02-16T21:46:45.576Z,41.63
2023-02-16T21:49:17.687Z,41.48
2023-02-16T21:51:46.238Z,44.16
2023-02-16T21:54:16.159Z,43.25
2023-02-16T21:56:48.062Z,43.51
2023-02-16T21:59:17.260Z,42.68
2023-02-16T22:01:47.458Z,42.66
2023-02-16T22:04:17.207Z,42.38
2023-02-16T22:06:46.737Z,42.17
2023-02-16T22:09:19.397Z,41.54
2023-02-16T22:11:46.973Z,41.66
2023-02-16T22:14:13.840Z,41.83
2023-02-16T22:16:41.100Z,41.84
2023-02-16T22:19:12.296Z,41.39
2023-02-16T22:21:41.672Z,41.53
2023-02-16T22:24:11.908Z,41.97
2023-02-16T22:26:38.817Z,42.35
2023-02-16T22:29:07.981Z,41.64
2023-02-16T22:31:35.345Z,42.36
2023-02-16T22:34:07.738Z,45.31
2023-02-16T22:36:36.238Z,43.26
2023-02-16T22:39:03.394Z,42.80
2023-02-16T22:41:30.426Z,42.91
2023-02-16T22:43:59.260Z,43.33
2023-02-16T22:46:28.017Z,43.03
2023-02-16T22:48:58.406Z,42.42
2023-02-16T22:51:27.671Z,41.93
2023-02-16T22:53:55.058Z,43.42
2023-02-16T22:56:23.035Z,43.83
2023-02-16T22:58:49.959Z,42.83
2023-02-16T23:01:20.439Z,42.18
2023-02-16T23:03:49.100Z,42.39
2023-02-16T23:06:18.555Z,43.80
2023-02-16T23:08:47.692Z,42.42
2023-02-16T23:11:15.511Z,44.13
2023-02-16T23:13:45.734Z,42.84
2023-02-16T23:16:20.108Z,42.93
2023-02-16T23:18:47.052Z,43.74
2023-02-16T23:21:24.455Z,43.36
2023-02-16T23:23:52.683Z,42.93
2023-02-16T23:26:21.848Z,42.97
2023-02-16T23:28:56.561Z,42.48
2023-02-16T23:31:23.817Z,42.26
2023-02-16T23:33:51.509Z,42.29
2023-02-16T23:36:19.393Z,42.31
2023-02-16T23:38:46.170Z,42.26
2023-02-16T23:41:14.476Z,43.06
2023-02-16T23:43:41.644Z,43.12
2023-02-16T23:46:10.914Z,43.24
2023-02-16T23:48:38.592Z,42.93
2023-02-16T23:51:06.179Z,43.78
2023-02-16T23:53:33.136Z,44.64
2023-02-16T23:56:05.290Z,44.52
2023-02-16T23:58:36.432Z,43.81
